sensor_id;sensor_type;location;lat;lon;timestamp;pressure;altitude;pressure_sealevel;temperature
67966;BMP280;54749;47.850;9.002;2022-11-11T00:01:40;97359.44;;;3.46
67966;BMP280;54749;47.850;9.002;2022-11-11T00:04:25;97348.59;;;3.46
67966;BMP280;54749;47.850;9.002;2022-11-11T00:07:12;97350.97;;;3.50
67966;BMP280;54749;47.850;9.002;2022-11-11T00:09:57;97350.16;;;3.49
67966;BMP280;54749;47.850;9.002;2022-11-11T00:12:42;97348.75;;;3.40
67966;BMP280;54749;47.850;9.002;2022-11-11T00:15:28;97348.78;;;3.38
67966;BMP280;54749;47.850;9.002;2022-11-11T00:18:14;97352.28;;;3.33
67966;BMP280;54749;47.850;9.002;2022-11-11T00:21:18;97344.09;;;3.28
67966;BMP280;54749;47.850;9.002;2022-11-11T00:24:32;97339.94;;;3.27
67966;BMP280;54749;47.850;9.002;2022-11-11T00:27:38;97332.44;;;3.27
67966;BMP280;54749;47.850;9.002;2022-11-11T00:30:23;97335.81;;;3.26
67966;BMP280;54749;47.850;9.002;2022-11-11T00:33:09;97351.59;;;3.28
67966;BMP280;54749;47.850;9.002;2022-11-11T00:35:54;97350.69;;;3.29
67966;BMP280;54749;47.850;9.002;2022-11-11T00:38:40;97338.19;;;3.31
67966;BMP280;54749;47.850;9.002;2022-11-11T00:41:32;97338.84;;;3.37
67966;BMP280;54749;47.850;9.002;2022-11-11T00:44:17;97346.34;;;3.37
67966;BMP280;54749;47.850;9.002;2022-11-11T00:47:03;97358.91;;;3.34
67966;BMP280;54749;47.850;9.002;2022-11-11T00:50:16;97353.16;;;3.31
67966;BMP280;54749;47.850;9.002;2022-11-11T00:53:23;97366.50;;;3.30
67966;BMP280;54749;47.850;9.002;2022-11-11T00:56:12;97375.78;;;3.26
67966;BMP280;54749;47.850;9.002;2022-11-11T00:58:57;97374.13;;;3.25
67966;BMP280;54749;47.850;9.002;2022-11-11T01:01:43;97366.75;;;3.21
67966;BMP280;54749;47.850;9.002;2022-11-11T01:04:28;97358.59;;;3.14
67966;BMP280;54749;47.850;9.002;2022-11-11T01:07:14;97378.69;;;3.10
67966;BMP280;54749;47.850;9.002;2022-11-11T01:10:00;97355.50;;;3.05
67966;BMP280;54749;47.850;9.002;2022-11-11T01:12:45;97359.91;;;2.96
67966;BMP280;54749;47.850;9.002;2022-11-11T01:15:34;97360.00;;;2.93
67966;BMP280;54749;47.850;9.002;2022-11-11T01:18:22;97360.00;;;2.93
67966;BMP280;54749;47.850;9.002;2022-11-11T01:21:16;97359.88;;;2.97
67966;BMP280;54749;47.850;9.002;2022-11-11T01:24:02;97367.19;;;3.03
67966;BMP280;54749;47.850;9.002;2022-11-11T01:26:48;97361.41;;;3.03
67966;BMP280;54749;47.850;9.002;2022-11-11T01:29:33;97372.28;;;3.00
67966;BMP280;54749;47.850;9.002;2022-11-11T01:32:19;97366.56;;;2.97
67966;BMP280;54749;47.850;9.002;2022-11-11T01:35:05;97358.47;;;2.88
67966;BMP280;54749;47.850;9.002;2022-11-11T01:37:50;97366.16;;;2.79
67966;BMP280;54749;47.850;9.002;2022-11-11T01:40:41;97371.28;;;2.73
67966;BMP280;54749;47.850;9.002;2022-11-11T01:43:27;97367.22;;;2.71
67966;BMP280;54749;47.850;9.002;2022-11-11T01:46:25;97371.34;;;2.72
67966;BMP280;54749;47.850;9.002;2022-11-11T01:49:23;97384.78;;;2.66
67966;BMP280;54749;47.850;9.002;2022-11-11T01:55:18;97376.59;;;2.62
67966;BMP280;54749;47.850;9.002;2022-11-11T01:58:08;97382.25;;;2.68
67966;BMP280;54749;47.850;9.002;2022-11-11T02:00:57;97390.41;;;2.76
67966;BMP280;54749;47.850;9.002;2022-11-11T02:03:45;97385.50;;;2.71
67966;BMP280;54749;47.850;9.002;2022-11-11T02:06:54;97392.31;;;2.65
67966;BMP280;54749;47.850;9.002;2022-11-11T02:09:44;97387.59;;;2.53
67966;BMP280;54749;47.850;9.002;2022-11-11T02:12:30;97394.34;;;2.48
67966;BMP280;54749;47.850;9.002;2022-11-11T02:15:37;97391.78;;;2.51
67966;BMP280;54749;47.850;9.002;2022-11-11T02:18:23;97396.00;;;2.49
67966;BMP280;54749;47.850;9.002;2022-11-11T02:21:13;97401.91;;;2.45
67966;BMP280;54749;47.850;9.002;2022-11-11T02:24:13;97390.31;;;2.43
67966;BMP280;54749;47.850;9.002;2022-11-11T02:27:01;97394.56;;;2.40
67966;BMP280;54749;47.850;9.002;2022-11-11T02:29:49;97407.88;;;2.39
67966;BMP280;54749;47.850;9.002;2022-11-11T02:32:36;97397.97;;;2.36
67966;BMP280;54749;47.850;9.002;2022-11-11T02:35:43;97409.59;;;2.37
67966;BMP280;54749;47.850;9.002;2022-11-11T02:38:29;97421.28;;;2.35
67966;BMP280;54749;47.850;9.002;2022-11-11T02:41:15;97412.94;;;2.36
67966;BMP280;54749;47.850;9.002;2022-11-11T02:44:19;97401.28;;;2.36
67966;BMP280;54749;47.850;9.002;2022-11-11T02:47:05;97408.59;;;2.44
67966;BMP280;54749;47.850;9.002;2022-11-11T02:49:50;97410.19;;;2.47
67966;BMP280;54749;47.850;9.002;2022-11-11T02:52:35;97409.31;;;2.48
67966;BMP280;54749;47.850;9.002;2022-11-11T02:55:21;97417.00;;;2.41
67966;BMP280;54749;47.850;9.002;2022-11-11T02:58:07;97403.06;;;2.31
67966;BMP280;54749;47.850;9.002;2022-11-11T03:00:53;97404.75;;;2.31
67966;BMP280;54749;47.850;9.002;2022-11-11T03:03:38;97416.44;;;2.29
67966;BMP280;54749;47.850;9.002;2022-11-11T03:06:24;97414.78;;;2.28
67966;BMP280;54749;47.850;9.002;2022-11-11T03:09:10;97434.75;;;2.28
67966;BMP280;54749;47.850;9.002;2022-11-11T03:11:55;97424.56;;;2.37
67966;BMP280;54749;47.850;9.002;2022-11-11T03:14:41;97437.69;;;2.44
67966;BMP280;54749;47.850;9.002;2022-11-11T03:17:27;97432.44;;;2.56
67966;BMP280;54749;47.850;9.002;2022-11-11T03:20:25;97427.50;;;2.55
67966;BMP280;54749;47.850;9.002;2022-11-11T03:24:09;97439.91;;;2.58
67966;BMP280;54749;47.850;9.002;2022-11-11T03:26:54;97429.09;;;2.57
67966;BMP280;54749;47.850;9.002;2022-11-11T03:29:40;97435.00;;;2.53
67966;BMP280;54749;47.850;9.002;2022-11-11T03:32:26;97444.25;;;2.48
67966;BMP280;54749;47.850;9.002;2022-11-11T03:35:12;97441.03;;;2.44
67966;BMP280;54749;47.850;9.002;2022-11-11T03:37:57;97457.78;;;2.39
67966;BMP280;54749;47.850;9.002;2022-11-11T03:41:08;97461.16;;;2.38
67966;BMP280;54749;47.850;9.002;2022-11-11T03:43:53;97445.44;;;2.33
67966;BMP280;54749;47.850;9.002;2022-11-11T03:46:38;97473.72;;;2.33
67966;BMP280;54749;47.850;9.002;2022-11-11T03:49:24;97469.28;;;2.45
67966;BMP280;54749;47.850;9.002;2022-11-11T03:52:10;97465.13;;;2.46
67966;BMP280;54749;47.850;9.002;2022-11-11T03:54:54;97475.94;;;2.46
67966;BMP280;54749;47.850;9.002;2022-11-11T03:57:41;97478.47;;;2.44
67966;BMP280;54749;47.850;9.002;2022-11-11T04:00:28;97467.72;;;2.40
67966;BMP280;54749;47.850;9.002;2022-11-11T04:03:16;97474.47;;;2.37
67966;BMP280;54749;47.850;9.002;2022-11-11T04:06:20;97476.22;;;2.32
67966;BMP280;54749;47.850;9.002;2022-11-11T04:09:24;97479.63;;;2.28
67966;BMP280;54749;47.850;9.002;2022-11-11T04:12:30;97465.59;;;2.24
67966;BMP280;54749;47.850;9.002;2022-11-11T04:15:16;97459.88;;;2.19
67966;BMP280;54749;47.850;9.002;2022-11-11T04:18:20;97469.13;;;2.14
67966;BMP280;54749;47.850;9.002;2022-11-11T04:21:28;97477.63;;;2.05
67966;BMP280;54749;47.850;9.002;2022-11-11T04:24:29;97478.59;;;1.98
67966;BMP280;54749;47.850;9.002;2022-11-11T04:27:33;97486.81;;;2.01
67966;BMP280;54749;47.850;9.002;2022-11-11T04:30:19;97493.47;;;2.01
67966;BMP280;54749;47.850;9.002;2022-11-11T04:33:04;97485.25;;;1.97
67966;BMP280;54749;47.850;9.002;2022-11-11T04:35:49;97478.63;;;1.96
67966;BMP280;54749;47.850;9.002;2022-11-11T04:38:35;97486.91;;;1.97
67966;BMP280;54749;47.850;9.002;2022-11-11T04:41:39;97488.59;;;1.95
67966;BMP280;54749;47.850;9.002;2022-11-11T04:44:44;97487.03;;;1.91
67966;BMP280;54749;47.850;9.002;2022-11-11T04:48:03;97480.44;;;1.87
67966;BMP280;54749;47.850;9.002;2022-11-11T04:50:48;97483.84;;;1.83
67966;BMP280;54749;47.850;9.002;2022-11-11T04:53:34;97489.75;;;1.79
67966;BMP280;54749;47.850;9.002;2022-11-11T04:56:20;97496.41;;;1.79
67966;BMP280;54749;47.850;9.002;2022-11-11T04:59:23;97493.88;;;1.80
67966;BMP280;54749;47.850;9.002;2022-11-11T05:02:09;97499.72;;;1.79
67966;BMP280;54749;47.850;9.002;2022-11-11T05:05:13;97486.47;;;1.77
67966;BMP280;54749;47.850;9.002;2022-11-11T05:07:58;97508.00;;;1.80
67966;BMP280;54749;47.850;9.002;2022-11-11T05:11:02;97502.13;;;1.82
67966;BMP280;54749;47.850;9.002;2022-11-11T05:13:50;97508.78;;;1.82
67966;BMP280;54749;47.850;9.002;2022-11-11T05:16:56;97466.44;;;4.78
67966;BMP280;54749;47.850;9.002;2022-11-11T05:20:00;97463.09;;;5.80
67966;BMP280;54749;47.850;9.002;2022-11-11T05:23:04;97472.84;;;5.38
67966;BMP280;54749;47.850;9.002;2022-11-11T05:25:49;97493.53;;;4.66
67966;BMP280;54749;47.850;9.002;2022-11-11T05:28:34;97493.63;;;4.05
67966;BMP280;54749;47.850;9.002;2022-11-11T05:31:19;97512.63;;;3.48
67966;BMP280;54749;47.850;9.002;2022-11-11T05:34:04;97520.13;;;3.14
67966;BMP280;54749;47.850;9.002;2022-11-11T05:36:50;97527.19;;;2.97
67966;BMP280;54749;47.850;9.002;2022-11-11T05:39:35;97541.47;;;2.91
67966;BMP280;54749;47.850;9.002;2022-11-11T05:42:21;97526.47;;;2.91
67966;BMP280;54749;47.850;9.002;2022-11-11T05:45:07;97537.47;;;2.84
67966;BMP280;54749;47.850;9.002;2022-11-11T05:47:52;97544.88;;;2.87
67966;BMP280;54749;47.850;9.002;2022-11-11T05:50:37;97538.00;;;2.98
67966;BMP280;54749;47.850;9.002;2022-11-11T05:53:26;97530.25;;;3.08
67966;BMP280;54749;47.850;9.002;2022-11-11T05:56:12;97538.28;;;3.20
67966;BMP280;54749;47.850;9.002;2022-11-11T05:58:58;97549.78;;;3.29
67966;BMP280;54749;47.850;9.002;2022-11-11T06:01:44;97550.31;;;3.39
67966;BMP280;54749;47.850;9.002;2022-11-11T06:04:30;97555.16;;;3.47
67966;BMP280;54749;47.850;9.002;2022-11-11T06:07:16;97547.50;;;3.52
67966;BMP280;54749;47.850;9.002;2022-11-11T06:10:01;97560.00;;;3.52
67966;BMP280;54749;47.850;9.002;2022-11-11T06:13:06;97573.13;;;3.60
67966;BMP280;54749;47.850;9.002;2022-11-11T06:15:58;97556.34;;;3.65
67966;BMP280;54749;47.850;9.002;2022-11-11T06:18:43;97566.97;;;3.74
67966;BMP280;54749;47.850;9.002;2022-11-11T06:21:32;97565.91;;;3.83
67966;BMP280;54749;47.850;9.002;2022-11-11T06:24:37;97563.09;;;3.94
67966;BMP280;54749;47.850;9.002;2022-11-11T06:27:22;97557.88;;;4.03
67966;BMP280;54749;47.850;9.002;2022-11-11T06:30:08;97558.44;;;4.14
67966;BMP280;54749;47.850;9.002;2022-11-11T06:33:14;97586.56;;;4.21
67966;BMP280;54749;47.850;9.002;2022-11-11T06:36:00;97576.41;;;4.27
67966;BMP280;54749;47.850;9.002;2022-11-11T06:38:46;97582.00;;;4.37
67966;BMP280;54749;47.850;9.002;2022-11-11T06:41:31;97584.31;;;4.42
67966;BMP280;54749;47.850;9.002;2022-11-11T06:44:16;97584.19;;;4.47
67966;BMP280;54749;47.850;9.002;2022-11-11T06:47:01;97607.34;;;4.54
67966;BMP280;54749;47.850;9.002;2022-11-11T06:49:47;97604.66;;;4.62
67966;BMP280;54749;47.850;9.002;2022-11-11T06:52:32;97603.91;;;4.58
67966;BMP280;54749;47.850;9.002;2022-11-11T06:55:17;97607.97;;;4.62
67966;BMP280;54749;47.850;9.002;2022-11-11T06:58:16;97612.81;;;4.68
67966;BMP280;54749;47.850;9.002;2022-11-11T07:01:04;97613.44;;;4.76
67966;BMP280;54749;47.850;9.002;2022-11-11T07:03:49;97610.81;;;4.80
67966;BMP280;54749;47.850;9.002;2022-11-11T07:06:35;97614.81;;;4.86
67966;BMP280;54749;47.850;9.002;2022-11-11T07:09:20;97620.38;;;4.95
67966;BMP280;54749;47.850;9.002;2022-11-11T07:12:07;97625.84;;;5.08
67966;BMP280;54749;47.850;9.002;2022-11-11T07:14:53;97636.28;;;5.22
67966;BMP280;54749;47.850;9.002;2022-11-11T07:17:40;97637.59;;;5.33
67966;BMP280;54749;47.850;9.002;2022-11-11T07:20:25;97626.56;;;5.40
67966;BMP280;54749;47.850;9.002;2022-11-11T07:23:11;97626.19;;;5.52
67966;BMP280;54749;47.850;9.002;2022-11-11T07:25:57;97626.06;;;5.55
67966;BMP280;54749;47.850;9.002;2022-11-11T07:28:43;97623.50;;;5.58
67966;BMP280;54749;47.850;9.002;2022-11-11T07:31:28;97618.28;;;5.65
67966;BMP280;54749;47.850;9.002;2022-11-11T07:34:14;97626.47;;;5.70
67966;BMP280;54749;47.850;9.002;2022-11-11T07:36:59;97625.38;;;5.78
67966;BMP280;54749;47.850;9.002;2022-11-11T07:39:45;97621.72;;;5.88
67966;BMP280;54749;47.850;9.002;2022-11-11T07:42:30;97625.63;;;5.96
67966;BMP280;54749;47.850;9.002;2022-11-11T07:45:16;97626.16;;;6.05
67966;BMP280;54749;47.850;9.002;2022-11-11T07:48:01;97624.94;;;6.16
67966;BMP280;54749;47.850;9.002;2022-11-11T07:50:47;97625.75;;;6.17
67966;BMP280;54749;47.850;9.002;2022-11-11T07:53:32;97630.47;;;6.26
67966;BMP280;54749;47.850;9.002;2022-11-11T07:56:18;97627.66;;;6.34
67966;BMP280;54749;47.850;9.002;2022-11-11T07:59:03;97629.06;;;6.66
67966;BMP280;54749;47.850;9.002;2022-11-11T08:01:49;97622.94;;;6.96
67966;BMP280;54749;47.850;9.002;2022-11-11T08:04:34;97613.88;;;7.14
67966;BMP280;54749;47.850;9.002;2022-11-11T08:07:19;97625.78;;;7.09
67966;BMP280;54749;47.850;9.002;2022-11-11T08:10:09;97625.47;;;7.18
67966;BMP280;54749;47.850;9.002;2022-11-11T08:12:55;97625.47;;;7.18
67966;BMP280;54749;47.850;9.002;2022-11-11T08:15:59;97632.22;;;7.16
67966;BMP280;54749;47.850;9.002;2022-11-11T08:18:47;97638.72;;;7.21
67966;BMP280;54749;47.850;9.002;2022-11-11T08:21:32;97630.16;;;7.27
67966;BMP280;54749;47.850;9.002;2022-11-11T08:24:17;97643.25;;;7.34
67966;BMP280;54749;47.850;9.002;2022-11-11T08:27:24;97651.88;;;7.28
67966;BMP280;54749;47.850;9.002;2022-11-11T08:30:10;97642.91;;;7.22
67966;BMP280;54749;47.850;9.002;2022-11-11T08:33:00;97652.88;;;7.24
67966;BMP280;54749;47.850;9.002;2022-11-11T08:36:06;97656.91;;;7.28
67966;BMP280;54749;47.850;9.002;2022-11-11T08:38:52;97657.50;;;7.35
67966;BMP280;54749;47.850;9.002;2022-11-11T08:41:37;97648.81;;;7.42
67966;BMP280;54749;47.850;9.002;2022-11-11T08:44:22;97649.34;;;7.50
67966;BMP280;54749;47.850;9.002;2022-11-11T08:47:08;97649.97;;;7.56
67966;BMP280;54749;47.850;9.002;2022-11-11T08:49:53;97648.91;;;7.62
67966;BMP280;54749;47.850;9.002;2022-11-11T08:52:44;97661.94;;;7.71
67966;BMP280;54749;47.850;9.002;2022-11-11T08:55:30;97658.38;;;7.76
67966;BMP280;54749;47.850;9.002;2022-11-11T08:58:15;97661.56;;;7.81
67966;BMP280;54749;47.850;9.002;2022-11-11T09:01:04;97658.69;;;7.90
67966;BMP280;54749;47.850;9.002;2022-11-11T09:03:54;97659.22;;;7.98
67966;BMP280;54749;47.850;9.002;2022-11-11T09:06:39;97667.19;;;8.08
67966;BMP280;54749;47.850;9.002;2022-11-11T09:09:27;97660.22;;;8.15
67966;BMP280;54749;47.850;9.002;2022-11-11T09:12:12;97662.31;;;8.25
67966;BMP280;54749;47.850;9.002;2022-11-11T09:14:58;97650.19;;;8.34
67966;BMP280;54749;47.850;9.002;2022-11-11T09:17:46;97657.56;;;8.39
67966;BMP280;54749;47.850;9.002;2022-11-11T09:20:32;97656.34;;;8.47
67966;BMP280;54749;47.850;9.002;2022-11-11T09:23:17;97659.31;;;8.56
67966;BMP280;54749;47.850;9.002;2022-11-11T09:26:02;97661.31;;;8.68
67966;BMP280;54749;47.850;9.002;2022-11-11T09:28:50;97650.22;;;8.72
67966;BMP280;54749;47.850;9.002;2022-11-11T09:31:35;97650.88;;;8.76
67966;BMP280;54749;47.850;9.002;2022-11-11T09:34:29;97642.97;;;8.84
67966;BMP280;54749;47.850;9.002;2022-11-11T09:37:14;97655.28;;;8.91
67966;BMP280;54749;47.850;9.002;2022-11-11T09:40:00;97650.75;;;8.97
67966;BMP280;54749;47.850;9.002;2022-11-11T09:43:09;97658.03;;;9.05
67966;BMP280;54749;47.850;9.002;2022-11-11T09:46:15;97646.81;;;9.10
67966;BMP280;54749;47.850;9.002;2022-11-11T09:52:01;97652.16;;;9.22
67966;BMP280;54749;47.850;9.002;2022-11-11T09:58:16;97655.03;;;9.33
67966;BMP280;54749;47.850;9.002;2022-11-11T10:01:15;97637.19;;;9.37
67966;BMP280;54749;47.850;9.002;2022-11-11T10:08:00;97619.31;;;9.42
67966;BMP280;54749;47.850;9.002;2022-11-11T10:10:51;97627.63;;;9.44
67966;BMP280;54749;47.850;9.002;2022-11-11T10:13:37;97619.03;;;9.47
67966;BMP280;54749;47.850;9.002;2022-11-11T10:17:06;97625.28;;;9.57
67966;BMP280;54749;47.850;9.002;2022-11-11T10:19:52;97602.09;;;9.67
67966;BMP280;54749;47.850;9.002;2022-11-11T10:22:42;97597.69;;;9.71
67966;BMP280;54749;47.850;9.002;2022-11-11T10:25:29;97601.88;;;9.72
67966;BMP280;54749;47.850;9.002;2022-11-11T10:28:18;97594.44;;;9.69
67966;BMP280;54749;47.850;9.002;2022-11-11T10:31:14;97594.88;;;9.78
67966;BMP280;54749;47.850;9.002;2022-11-11T10:34:09;97592.44;;;9.93
67966;BMP280;54749;47.850;9.002;2022-11-11T10:36:55;97593.03;;;9.98
67966;BMP280;54749;47.850;9.002;2022-11-11T10:39:49;97588.81;;;9.98
67966;BMP280;54749;47.850;9.002;2022-11-11T10:42:40;97582.03;;;9.99
67966;BMP280;54749;47.850;9.002;2022-11-11T10:46:14;97588.59;;;10.03
67966;BMP280;54749;47.850;9.002;2022-11-11T10:48:57;97581.50;;;10.09
67966;BMP280;54749;47.850;9.002;2022-11-11T11:00:31;97569.09;;;10.05
67966;BMP280;54749;47.850;9.002;2022-11-11T11:03:33;97567.63;;;10.01
67966;BMP280;54749;47.850;9.002;2022-11-11T11:06:29;97572.00;;;9.98
67966;BMP280;54749;47.850;9.002;2022-11-11T11:09:23;97557.84;;;9.95
67966;BMP280;54749;47.850;9.002;2022-11-11T11:12:19;97564.88;;;10.05
67966;BMP280;54749;47.850;9.002;2022-11-11T11:15:14;97573.50;;;10.01
67966;BMP280;54749;47.850;9.002;2022-11-11T11:18:07;97566.44;;;10.08
67966;BMP280;54749;47.850;9.002;2022-11-11T11:21:00;97563.47;;;10.16
67966;BMP280;54749;47.850;9.002;2022-11-11T11:23:46;97553.06;;;10.22
67966;BMP280;54749;47.850;9.002;2022-11-11T11:26:43;97551.94;;;10.28
67966;BMP280;54749;47.850;9.002;2022-11-11T11:29:35;97557.97;;;10.25
67966;BMP280;54749;47.850;9.002;2022-11-11T11:32:29;97553.06;;;10.22
67966;BMP280;54749;47.850;9.002;2022-11-11T11:35:36;97564.13;;;10.20
67966;BMP280;54749;47.850;9.002;2022-11-11T11:38:39;97563.97;;;10.23
67966;BMP280;54749;47.850;9.002;2022-11-11T11:41:44;97556.94;;;10.29
67966;BMP280;54749;47.850;9.002;2022-11-11T11:44:36;97561.66;;;10.35
67966;BMP280;54749;47.850;9.002;2022-11-11T11:50:56;97571.28;;;10.29
67966;BMP280;54749;47.850;9.002;2022-11-11T11:54:14;97585.00;;;10.23
67966;BMP280;54749;47.850;9.002;2022-11-11T11:57:03;97568.38;;;10.19
67966;BMP280;54749;47.850;9.002;2022-11-11T12:11:58;97559.25;;;10.17
67966;BMP280;54749;47.850;9.002;2022-11-11T12:21:26;97547.53;;;10.31
67966;BMP280;54749;47.850;9.002;2022-11-11T12:27:19;97549.72;;;10.38
67966;BMP280;54749;47.850;9.002;2022-11-11T12:30:17;97546.97;;;10.43
67966;BMP280;54749;47.850;9.002;2022-11-11T12:36:37;97551.88;;;10.61
67966;BMP280;54749;47.850;9.002;2022-11-11T12:42:32;97550.94;;;10.63
67966;BMP280;54749;47.850;9.002;2022-11-11T12:45:26;97557.75;;;10.61
67966;BMP280;54749;47.850;9.002;2022-11-11T12:48:42;97553.16;;;10.52
67966;BMP280;54749;47.850;9.002;2022-11-11T12:52:33;97546.50;;;10.51
67966;BMP280;54749;47.850;9.002;2022-11-11T12:55:18;97552.94;;;10.57
67966;BMP280;54749;47.850;9.002;2022-11-11T12:58:26;97554.88;;;10.52
67966;BMP280;54749;47.850;9.002;2022-11-11T13:04:28;97543.88;;;10.53
67966;BMP280;54749;47.850;9.002;2022-11-11T13:10:59;97551.75;;;10.64
67966;BMP280;54749;47.850;9.002;2022-11-11T13:14:18;97538.69;;;10.71
67966;BMP280;54749;47.850;9.002;2022-11-11T13:17:11;97543.28;;;10.80
67966;BMP280;54749;47.850;9.002;2022-11-11T13:23:27;97546.34;;;10.69
67966;BMP280;54749;47.850;9.002;2022-11-11T13:29:40;97552.69;;;10.61
67966;BMP280;54749;47.850;9.002;2022-11-11T13:32:40;97551.97;;;10.59
67966;BMP280;54749;47.850;9.002;2022-11-11T13:35:35;97560.03;;;10.50
67966;BMP280;54749;47.850;9.002;2022-11-11T13:38:28;97553.50;;;10.47
67966;BMP280;54749;47.850;9.002;2022-11-11T13:41:36;97539.16;;;10.47
67966;BMP280;54749;47.850;9.002;2022-11-11T13:44:27;97530.56;;;10.50
67966;BMP280;54749;47.850;9.002;2022-11-11T13:47:18;97519.34;;;10.55
67966;BMP280;54749;47.850;9.002;2022-11-11T13:50:08;97514.53;;;10.50
67966;BMP280;54749;47.850;9.002;2022-11-11T13:53:04;97504.78;;;10.43
67966;BMP280;54749;47.850;9.002;2022-11-11T13:55:51;97537.91;;;10.39
67966;BMP280;54749;47.850;9.002;2022-11-11T13:58:40;97541.00;;;10.27
67966;BMP280;54749;47.850;9.002;2022-11-11T14:01:36;97543.53;;;10.27
67966;BMP280;54749;47.850;9.002;2022-11-11T14:04:27;97546.88;;;10.28
67966;BMP280;54749;47.850;9.002;2022-11-11T14:16:09;97557.22;;;10.07
67966;BMP280;54749;47.850;9.002;2022-11-11T14:18:54;97550.59;;;9.88
67966;BMP280;54749;47.850;9.002;2022-11-11T14:21:48;97553.66;;;9.78
67966;BMP280;54749;47.850;9.002;2022-11-11T14:24:39;97558.69;;;9.78
67966;BMP280;54749;47.850;9.002;2022-11-11T14:27:30;97543.97;;;9.69
67966;BMP280;54749;47.850;9.002;2022-11-11T14:30:38;97553.03;;;9.73
67966;BMP280;54749;47.850;9.002;2022-11-11T14:33:52;97557.06;;;9.77
67966;BMP280;54749;47.850;9.002;2022-11-11T14:37:36;97566.47;;;9.73
67966;BMP280;54749;47.850;9.002;2022-11-11T14:39:59;97564.88;;;9.71
67966;BMP280;54749;47.850;9.002;2022-11-11T14:42:45;97561.63;;;9.69
67966;BMP280;54749;47.850;9.002;2022-11-11T14:51:40;97561.94;;;9.45
67966;BMP280;54749;47.850;9.002;2022-11-11T14:57:50;97567.00;;;9.27
67966;BMP280;54749;47.850;9.002;2022-11-11T15:00:46;97569.50;;;9.27
67966;BMP280;54749;47.850;9.002;2022-11-11T15:03:39;97564.22;;;9.33
67966;BMP280;54749;47.850;9.002;2022-11-11T15:06:43;97560.72;;;9.35
67966;BMP280;54749;47.850;9.002;2022-11-11T15:09:44;97553.75;;;9.40
67966;BMP280;54749;47.850;9.002;2022-11-11T15:12:47;97552.19;;;9.38
67966;BMP280;54749;47.850;9.002;2022-11-11T15:15:52;97544.41;;;9.42
67966;BMP280;54749;47.850;9.002;2022-11-11T15:21:49;97540.81;;;9.47
67966;BMP280;54749;47.850;9.002;2022-11-11T15:25:35;97544.06;;;9.49
67966;BMP280;54749;47.850;9.002;2022-11-11T15:34:53;97542.78;;;9.41
67966;BMP280;54749;47.850;9.002;2022-11-11T15:37:46;97542.38;;;9.32
67966;BMP280;54749;47.850;9.002;2022-11-11T15:40:45;97540.88;;;9.28
67966;BMP280;54749;47.850;9.002;2022-11-11T15:43:33;97550.16;;;9.27
67966;BMP280;54749;47.850;9.002;2022-11-11T15:46:29;97546.13;;;9.24
67966;BMP280;54749;47.850;9.002;2022-11-11T15:49:46;97554.53;;;9.24
67966;BMP280;54749;47.850;9.002;2022-11-11T15:52:34;97553.66;;;9.25
67966;BMP280;54749;47.850;9.002;2022-11-11T15:55:25;97559.56;;;9.24
67966;BMP280;54749;47.850;9.002;2022-11-11T15:58:15;97555.50;;;9.22
67966;BMP280;54749;47.850;9.002;2022-11-11T16:01:05;97553.84;;;9.21
67966;BMP280;54749;47.850;9.002;2022-11-11T16:03:51;97560.81;;;9.16
67966;BMP280;54749;47.850;9.002;2022-11-11T16:06:37;97566.00;;;9.13
67966;BMP280;54749;47.850;9.002;2022-11-11T16:09:25;97563.69;;;9.09
67966;BMP280;54749;47.850;9.002;2022-11-11T16:12:17;97557.81;;;9.08
67966;BMP280;54749;47.850;9.002;2022-11-11T16:15:06;97550.31;;;9.07
67966;BMP280;54749;47.850;9.002;2022-11-11T16:17:57;97557.81;;;9.08
67966;BMP280;54749;47.850;9.002;2022-11-11T16:23:39;97551.81;;;9.10
67966;BMP280;54749;47.850;9.002;2022-11-11T16:26:25;97565.19;;;9.12
67966;BMP280;54749;47.850;9.002;2022-11-11T16:29:13;97570.22;;;9.12
67966;BMP280;54749;47.850;9.002;2022-11-11T16:31:59;97563.53;;;9.11
67966;BMP280;54749;47.850;9.002;2022-11-11T16:34:45;97560.13;;;9.12
67966;BMP280;54749;47.850;9.002;2022-11-11T16:37:49;97558.50;;;9.11
67966;BMP280;54749;47.850;9.002;2022-11-11T16:40:41;97555.19;;;9.09
67966;BMP280;54749;47.850;9.002;2022-11-11T16:43:39;97556.13;;;9.09
67966;BMP280;54749;47.850;9.002;2022-11-11T16:49:27;97553.84;;;9.03
67966;BMP280;54749;47.850;9.002;2022-11-11T16:52:17;97564.00;;;9.01
67966;BMP280;54749;47.850;9.002;2022-11-11T16:55:03;97550.72;;;8.98
67966;BMP280;54749;47.850;9.002;2022-11-11T16:57:48;97555.91;;;8.95
67966;BMP280;54749;47.850;9.002;2022-11-11T17:00:34;97565.31;;;8.92
67966;BMP280;54749;47.850;9.002;2022-11-11T17:03:22;97572.13;;;8.90
67966;BMP280;54749;47.850;9.002;2022-11-11T17:06:10;97593.94;;;8.91
67966;BMP280;54749;47.850;9.002;2022-11-11T17:08:56;97591.31;;;8.92
67966;BMP280;54749;47.850;9.002;2022-11-11T17:11:43;97576.19;;;8.92
67966;BMP280;54749;47.850;9.002;2022-11-11T17:14:34;97586.56;;;8.86
67966;BMP280;54749;47.850;9.002;2022-11-11T17:17:20;97577.31;;;8.87
67966;BMP280;54749;47.850;9.002;2022-11-11T17:20:13;97567.22;;;8.87
67966;BMP280;54749;47.850;9.002;2022-11-11T17:22:58;97578.13;;;8.87
67966;BMP280;54749;47.850;9.002;2022-11-11T17:25:44;97589.97;;;8.85
67966;BMP280;54749;47.850;9.002;2022-11-11T17:28:32;97576.72;;;8.80
67966;BMP280;54749;47.850;9.002;2022-11-11T17:31:19;97589.53;;;8.76
67966;BMP280;54749;47.850;9.002;2022-11-11T17:34:08;97592.31;;;8.70
67966;BMP280;54749;47.850;9.002;2022-11-11T17:36:54;97594.28;;;8.64
67966;BMP280;54749;47.850;9.002;2022-11-11T17:39:40;97587.59;;;8.63
67966;BMP280;54749;47.850;9.002;2022-11-11T17:42:28;97593.91;;;8.53
67966;BMP280;54749;47.850;9.002;2022-11-11T17:45:14;97586.47;;;8.50
67966;BMP280;54749;47.850;9.002;2022-11-11T17:48:00;97582.47;;;8.46
67966;BMP280;54749;47.850;9.002;2022-11-11T17:50:46;97576.75;;;8.43
67966;BMP280;54749;47.850;9.002;2022-11-11T17:53:33;97591.09;;;8.41
67966;BMP280;54749;47.850;9.002;2022-11-11T17:56:18;97600.63;;;8.35
67966;BMP280;54749;47.850;9.002;2022-11-11T17:59:05;97589.03;;;8.31
67966;BMP280;54749;47.850;9.002;2022-11-11T18:01:52;97587.50;;;8.27
67966;BMP280;54749;47.850;9.002;2022-11-11T18:04:38;97601.81;;;8.26
67966;BMP280;54749;47.850;9.002;2022-11-11T18:07:24;97595.22;;;8.22
67966;BMP280;54749;47.850;9.002;2022-11-11T18:10:10;97601.19;;;8.22
67966;BMP280;54749;47.850;9.002;2022-11-11T18:12:56;97592.81;;;8.21
67966;BMP280;54749;47.850;9.002;2022-11-11T18:15:42;97587.63;;;8.24
67966;BMP280;54749;47.850;9.002;2022-11-11T18:18:28;97596.06;;;8.23
67966;BMP280;54749;47.850;9.002;2022-11-11T18:21:13;97595.38;;;8.20